createdAt,value
2018-04-14T00:02:09.895Z,50.45
2018-04-14T00:04:38.037Z,48.33
2018-04-14T00:07:06.208Z,53.40
2018-04-14T00:09:34.355Z,50.67
2018-04-14T00:12:02.523Z,52.47
2018-04-14T00:14:30.667Z,51.33
2018-04-14T00:16:58.840Z,50.33
2018-04-14T00:19:26.975Z,50.12
2018-04-14T00:21:55.913Z,50.95
2018-04-14T00:24:24.052Z,46.17
2018-04-14T00:26:52.980Z,50.75
2018-04-14T00:29:21.117Z,51.58
2018-04-14T00:31:50.041Z,56.47
2018-04-14T00:34:18.186Z,62.72
2018-04-14T00:36:46.365Z,53.20
2018-04-14T00:39:14.496Z,53.45
2018-04-14T00:41:42.663Z,53.75
2018-04-14T00:44:10.808Z,52.58
2018-04-14T00:46:38.975Z,53.58
2018-04-14T00:49:07.121Z,51.90
2018-04-14T00:51:35.286Z,54.85
2018-04-14T00:54:04.189Z,50.80
2018-04-14T00:56:32.356Z,48.67
2018-04-14T00:59:01.264Z,51.75
2018-04-14T01:01:29.429Z,48.95
2018-04-14T01:03:57.568Z,56.72
2018-04-14T01:06:25.741Z,53.40
2018-04-14T01:08:53.885Z,50.90
2018-04-14T01:11:22.057Z,53.87
2018-04-14T01:13:50.192Z,54.42
2018-04-14T01:16:18.359Z,50.47
2018-04-14T01:18:46.500Z,48.95
2018-04-14T01:21:14.666Z,54.03
2018-04-14T01:23:42.799Z,56.55
2018-04-14T01:26:10.963Z,56.28
2018-04-14T01:28:39.109Z,55.40
2018-04-14T01:31:07.268Z,52.10
2018-04-14T01:33:35.407Z,52.80
2018-04-14T01:36:03.576Z,51.83
2018-04-14T01:38:31.714Z,59.13
2018-04-14T01:41:00.640Z,59.53
2018-04-14T01:43:28.782Z,61.90
2018-04-14T01:45:57.708Z,61.92
2018-04-14T01:48:25.848Z,55.88
2018-04-14T01:50:54.780Z,64.40
2018-04-14T01:53:22.923Z,56.53
2018-04-14T01:55:51.092Z,64.28
2018-04-14T01:58:19.998Z,76.45
2018-04-14T02:00:48.163Z,75.65
2018-04-14T02:03:16.300Z,66.05
2018-04-14T02:05:44.476Z,62.85
2018-04-14T02:08:12.615Z,65.32
2018-04-14T02:10:40.783Z,60.67
2018-04-14T02:13:08.929Z,55.95
2018-04-14T02:15:37.099Z,57.30
2018-04-14T02:18:05.998Z,57.95
2018-04-14T02:20:34.167Z,55.75
2018-04-14T02:23:03.064Z,60.92
2018-04-14T02:25:31.222Z,59.33
2018-04-14T02:28:00.120Z,71.75
2018-04-14T02:30:28.272Z,63.15
2018-04-14T02:32:56.409Z,60.03
2018-04-14T02:35:24.570Z,54.00
2018-04-14T02:37:52.730Z,58.97
2018-04-14T02:40:20.904Z,63.10
2018-04-14T02:42:49.032Z,63.55
2018-04-14T02:45:17.192Z,64.12
2018-04-14T02:47:45.319Z,70.85
2018-04-14T02:50:13.484Z,81.15
2018-04-14T02:52:42.405Z,78.50
2018-04-14T02:55:10.568Z,76.10
2018-04-14T02:57:38.699Z,89.90
2018-04-14T03:00:06.860Z,89.45
2018-04-14T03:02:35.020Z,86.55
2018-04-14T03:05:03.184Z,96.43
2018-04-14T03:07:31.323Z,94.32
2018-04-14T03:09:59.482Z,86.53
2018-04-14T03:12:27.610Z,79.20
2018-04-14T03:14:55.768Z,78.95
2018-04-14T03:17:23.929Z,81.50
2018-04-14T03:19:52.088Z,69.57
2018-04-14T03:22:20.256Z,77.87
2018-04-14T03:24:49.188Z,72.37
2018-04-14T03:27:17.321Z,74.35
2018-04-14T03:29:46.256Z,78.95
2018-04-14T03:32:14.417Z,59.35
2018-04-14T03:34:42.579Z,56.92
2018-04-14T03:37:10.709Z,62.47
2018-04-14T03:39:38.840Z,84.90
2018-04-14T03:42:06.994Z,83.18
2018-04-14T03:44:35.125Z,75.37
2018-04-14T03:47:03.287Z,104.30
2018-04-14T03:49:31.424Z,131.55
2018-04-14T03:51:59.576Z,94.03
2018-04-14T03:54:27.712Z,106.00
2018-04-14T03:56:55.868Z,89.57
2018-04-14T03:59:24.011Z,106.30
2018-04-14T04:01:52.167Z,85.62
2018-04-14T04:04:21.067Z,84.87
2018-04-14T04:06:49.228Z,101.50
2018-04-14T04:09:18.133Z,99.37
2018-04-14T04:11:46.299Z,93.60
2018-04-14T04:14:15.202Z,93.80
2018-04-14T04:16:43.364Z,98.53
2018-04-14T04:22:28.367Z,87.60
2018-04-14T04:25:15.072Z,88.12
2018-04-14T04:27:43.267Z,79.78
2018-04-14T04:30:11.428Z,85.90
2018-04-14T04:32:39.597Z,83.97
2018-04-14T04:35:07.737Z,81.55
2018-04-14T04:37:36.685Z,68.30
2018-04-14T04:40:04.829Z,76.53
2018-04-14T04:42:32.996Z,66.68
2018-04-14T04:45:01.160Z,82.65
2018-04-14T04:47:29.520Z,72.95
2018-04-14T04:49:57.660Z,74.05
2018-04-14T04:52:26.240Z,78.18
2018-04-14T04:54:54.377Z,88.15
2018-04-14T04:57:22.542Z,96.40
2018-04-14T04:59:51.448Z,98.10
2018-04-14T05:02:20.527Z,102.82
2018-04-14T05:04:49.438Z,96.93
2018-04-14T05:07:17.604Z,83.50
2018-04-14T05:09:45.740Z,103.30
2018-04-14T05:12:13.916Z,127.72
2018-04-14T05:14:42.064Z,98.85
2018-04-14T05:17:10.235Z,138.48
2018-04-14T05:19:38.373Z,96.03
2018-04-14T05:22:06.609Z,93.57
2018-04-14T05:24:34.748Z,101.75
2018-04-14T05:27:02.925Z,99.68
2018-04-14T05:29:31.072Z,115.32
2018-04-14T05:31:59.257Z,135.12
2018-04-14T05:34:27.409Z,110.97
2018-04-14T05:36:56.345Z,108.50
2018-04-14T05:39:24.489Z,126.32
2018-04-14T05:41:52.661Z,116.53
2018-04-14T05:44:20.803Z,111.28
2018-04-14T05:46:49.739Z,121.57
2018-04-14T05:49:17.879Z,104.20
2018-04-14T05:51:46.804Z,109.53
2018-04-14T05:54:14.949Z,109.15
2018-04-14T05:56:43.875Z,116.60
2018-04-14T05:59:12.017Z,117.55
2018-04-14T06:01:40.952Z,102.22
2018-04-14T06:04:09.117Z,117.97
2018-04-14T06:06:37.280Z,111.25
2018-04-14T06:09:06.335Z,114.35
2018-04-14T06:11:34.517Z,112.80
2018-04-14T06:14:03.419Z,117.05
2018-04-14T06:16:31.586Z,105.63
2018-04-14T06:19:00.512Z,123.03
2018-04-14T06:21:28.647Z,107.37
2018-04-14T06:23:57.577Z,108.00
2018-04-14T06:26:25.725Z,111.95
2018-04-14T06:28:53.895Z,106.60
2018-04-14T06:31:22.030Z,109.55
2018-04-14T06:33:50.224Z,113.50
2018-04-14T06:36:19.124Z,121.85
2018-04-14T06:38:47.291Z,116.15
2018-04-14T06:41:16.197Z,107.07
2018-04-14T06:43:45.351Z,122.82
2018-04-14T06:46:13.533Z,108.55
2018-04-14T06:48:42.245Z,113.75
2018-04-14T06:51:10.396Z,104.65
2018-04-14T06:53:38.558Z,121.97
2018-04-14T06:56:06.696Z,138.55
2018-04-14T06:58:34.941Z,128.80
2018-04-14T07:01:03.857Z,117.00
2018-04-14T07:03:32.155Z,111.40
2018-04-14T07:06:00.513Z,112.57
2018-04-14T07:08:28.675Z,113.70
2018-04-14T07:10:57.129Z,103.95
2018-04-14T07:13:25.521Z,104.28
2018-04-14T07:15:54.855Z,114.68
2018-04-14T07:18:23.746Z,121.18
2018-04-14T07:20:53.203Z,100.75
2018-04-14T07:23:22.037Z,99.43
2018-04-14T07:25:50.882Z,77.43
2018-04-14T07:28:19.693Z,82.55
2018-04-14T07:30:48.247Z,87.88
2018-04-14T07:33:17.014Z,74.53
2018-04-14T07:35:46.248Z,82.30
2018-04-14T07:38:15.088Z,76.00
2018-04-14T07:40:44.051Z,82.50
2018-04-14T07:43:12.631Z,79.85
2018-04-14T07:45:41.944Z,76.65
2018-04-14T07:48:11.037Z,80.68
2018-04-14T07:50:39.662Z,69.62
2018-04-14T07:53:08.627Z,79.72
2018-04-14T07:55:37.453Z,80.87
2018-04-14T07:58:06.042Z,77.07
2018-04-14T08:00:34.559Z,60.80
2018-04-14T08:03:03.234Z,68.47
2018-04-14T08:05:31.628Z,61.85
2018-04-14T08:08:00.486Z,65.10
2018-04-14T08:10:29.045Z,55.35
2018-04-14T08:12:57.745Z,58.50
2018-04-14T08:15:26.667Z,51.85
2018-04-14T08:17:55.746Z,44.00
2018-04-14T08:20:24.577Z,36.17
2018-04-14T08:22:53.317Z,41.42
2018-04-14T08:25:21.958Z,37.55
2018-04-14T08:27:50.706Z,41.33
2018-04-14T08:30:19.742Z,34.28
2018-04-14T08:32:48.828Z,40.35
2018-04-14T08:35:18.355Z,35.28
2018-04-14T08:37:46.821Z,35.70
2018-04-14T08:40:15.367Z,36.78
2018-04-14T08:42:44.412Z,36.85
2018-04-14T08:45:13.717Z,33.10
2018-04-14T08:47:42.273Z,31.83
2018-04-14T08:50:10.855Z,33.80
2018-04-14T08:52:40.165Z,31.17
2018-04-14T08:55:09.889Z,29.50
2018-04-14T08:57:38.225Z,31.67
2018-04-14T09:00:06.724Z,28.15
2018-04-14T09:02:35.216Z,26.98
2018-04-14T09:05:04.976Z,27.90
2018-04-14T09:07:34.504Z,28.50
2018-04-14T09:10:03.299Z,29.25
2018-04-14T09:12:32.367Z,28.23
2018-04-14T09:15:02.213Z,28.73
2018-04-14T09:17:30.775Z,25.42
2018-04-14T09:19:59.620Z,26.77
2018-04-14T09:22:28.855Z,24.75
2018-04-14T09:24:57.572Z,25.25
2018-04-14T09:27:25.926Z,26.33
2018-04-14T09:29:55.157Z,25.70
2018-04-14T09:32:24.671Z,24.95
2018-04-14T09:34:53.167Z,24.05
2018-04-14T09:37:21.849Z,23.20
2018-04-14T09:39:50.424Z,20.62
2018-04-14T09:42:19.425Z,24.15
2018-04-14T09:44:48.089Z,24.12
2018-04-14T09:47:16.563Z,24.27
2018-04-14T09:49:45.346Z,23.62
2018-04-14T09:52:13.890Z,19.98
2018-04-14T09:54:42.708Z,22.08
2018-04-14T09:57:13.357Z,19.05
2018-04-14T09:59:42.597Z,18.62
2018-04-14T10:02:11.224Z,17.75
2018-04-14T10:04:39.922Z,18.17
2018-04-14T10:07:08.481Z,16.48
2018-04-14T10:09:37.808Z,18.12
2018-04-14T10:12:05.963Z,16.87
2018-04-14T10:14:35.124Z,15.23
2018-04-14T10:17:03.341Z,15.38
2018-04-14T10:19:32.268Z,13.25
2018-04-14T10:22:00.944Z,14.30
2018-04-14T10:24:29.457Z,16.10
2018-04-14T10:26:59.138Z,14.30
2018-04-14T10:29:27.680Z,14.48
2018-04-14T10:31:56.696Z,14.48
2018-04-14T10:34:25.571Z,14.02
2018-04-14T10:36:54.427Z,12.68
2018-04-14T10:39:23.210Z,13.48
2018-04-14T10:41:52.238Z,11.18
2018-04-14T10:44:20.449Z,13.85
2018-04-14T10:46:48.613Z,11.65
2018-04-14T10:49:17.037Z,10.98
2018-04-14T10:51:45.491Z,11.52
2018-04-14T10:54:13.958Z,11.70
2018-04-14T10:56:42.368Z,11.52
2018-04-14T10:59:11.195Z,10.93
2018-04-14T11:01:39.888Z,11.90
2018-04-14T11:04:08.754Z,11.35
2018-04-14T11:06:37.266Z,9.98
2018-04-14T11:09:06.002Z,10.25
2018-04-14T11:11:34.535Z,11.18
2018-04-14T11:14:03.117Z,10.15
2018-04-14T11:16:31.793Z,12.25
2018-04-14T11:19:00.486Z,10.23
2018-04-14T11:21:30.445Z,8.98
2018-04-14T11:23:59.430Z,10.13
2018-04-14T11:26:28.721Z,9.90
2018-04-14T11:28:58.083Z,9.95
2018-04-14T11:31:27.491Z,13.10
2018-04-14T11:33:56.188Z,11.60
2018-04-14T11:36:25.171Z,7.55
2018-04-14T11:38:53.988Z,8.90
2018-04-14T11:41:22.418Z,9.45
2018-04-14T11:43:52.256Z,7.37
2018-04-14T11:46:21.188Z,9.27
2018-04-14T11:48:49.641Z,9.35
2018-04-14T11:51:17.896Z,9.43
2018-04-14T11:53:46.057Z,9.40
2018-04-14T11:56:14.224Z,9.40
2018-04-14T11:58:42.367Z,9.60
2018-04-14T12:01:10.556Z,8.70
2018-04-14T12:03:38.748Z,9.05
2018-04-14T12:06:06.926Z,8.05
2018-04-14T12:08:35.070Z,7.72
2018-04-14T12:11:03.232Z,7.50
2018-04-14T12:13:31.383Z,7.40
2018-04-14T12:15:59.793Z,7.60
2018-04-14T12:18:27.985Z,7.95
2018-04-14T12:20:56.157Z,6.95
2018-04-14T12:23:24.408Z,6.90
2018-04-14T12:25:52.826Z,5.65
2018-04-14T12:28:21.037Z,6.22
2018-04-14T12:30:49.266Z,6.95
2018-04-14T12:33:17.417Z,4.43
2018-04-14T12:35:45.579Z,4.18
2018-04-14T12:38:13.708Z,5.35
2018-04-14T12:40:42.505Z,4.37
2018-04-14T12:43:11.415Z,4.43
2018-04-14T12:45:39.581Z,4.85
2018-04-14T12:48:08.485Z,3.85
2018-04-14T12:50:36.647Z,4.37
2018-04-14T12:53:05.544Z,4.03
2018-04-14T12:55:33.696Z,4.25
2018-04-14T12:58:01.850Z,3.80
2018-04-14T13:00:30.071Z,4.50
2018-04-14T13:02:58.215Z,3.42
2018-04-14T13:05:26.862Z,4.22
2018-04-14T13:07:55.076Z,4.35
2018-04-14T13:10:23.293Z,5.18
2018-04-14T13:12:51.422Z,4.07
2018-04-14T13:15:19.600Z,3.28
2018-04-14T13:17:47.757Z,3.17
2018-04-14T13:20:15.965Z,2.80
2018-04-14T13:22:44.898Z,4.25
2018-04-14T13:25:13.036Z,3.47
2018-04-14T13:27:41.961Z,3.53
2018-04-14T13:30:10.118Z,4.25
2018-04-14T13:32:38.262Z,3.65
2018-04-14T13:35:06.416Z,3.20
2018-04-14T13:37:34.671Z,3.08
2018-04-14T13:40:02.765Z,4.18
2018-04-14T13:42:30.936Z,3.45
2018-04-14T13:44:59.103Z,3.35
2018-04-14T13:47:27.243Z,4.18
2018-04-14T13:49:55.404Z,3.40
2018-04-14T13:52:23.604Z,3.53
2018-04-14T13:54:51.766Z,4.03
2018-04-14T13:57:19.974Z,2.78
2018-04-14T13:59:48.140Z,3.08
2018-04-14T14:02:16.340Z,2.85
2018-04-14T14:04:44.482Z,2.85
2018-04-14T14:07:12.663Z,3.65
2018-04-14T14:09:40.810Z,2.62
2018-04-14T14:12:09.006Z,2.80
2018-04-14T14:14:37.163Z,2.78
2018-04-14T14:17:05.324Z,2.08
2018-04-14T14:19:33.614Z,2.37
2018-04-14T14:22:01.801Z,2.55
2018-04-14T14:24:29.937Z,2.50
2018-04-14T14:26:58.102Z,3.08
2018-04-14T14:29:26.243Z,2.70
2018-04-14T14:31:54.439Z,2.80
2018-04-14T14:34:22.580Z,3.60
2018-04-14T14:36:50.751Z,3.50
2018-04-14T14:39:18.879Z,3.97
2018-04-14T14:41:47.042Z,4.55
2018-04-14T14:44:15.187Z,5.00
2018-04-14T14:46:43.344Z,5.45
2018-04-14T14:49:11.475Z,5.82
2018-04-14T14:51:39.634Z,6.03
2018-04-14T14:54:07.764Z,6.22
2018-04-14T14:56:35.922Z,6.78
2018-04-14T14:59:04.114Z,7.50
2018-04-14T15:01:32.255Z,6.60
2018-04-14T15:04:00.394Z,7.65
2018-04-14T15:06:28.545Z,9.93
2018-04-14T15:08:56.676Z,7.78
2018-04-14T15:11:24.834Z,8.45
2018-04-14T15:13:53.001Z,8.68
2018-04-14T15:16:21.166Z,9.13
2018-04-14T15:18:50.072Z,7.57
2018-04-14T15:21:18.239Z,8.32
2018-04-14T15:23:46.461Z,8.55
2018-04-14T15:26:14.659Z,9.27
2018-04-14T15:28:42.819Z,9.15
2018-04-14T15:31:10.989Z,10.18
2018-04-14T15:33:39.241Z,9.73
2018-04-14T15:36:07.481Z,8.20
2018-04-14T15:38:35.707Z,10.77
2018-04-14T15:41:03.863Z,9.40
2018-04-14T15:43:31.999Z,13.82
2018-04-14T15:46:00.272Z,10.80
2018-04-14T15:48:28.456Z,10.20
2018-04-14T15:50:56.599Z,11.93
2018-04-14T15:53:24.812Z,12.88
2018-04-14T15:55:52.994Z,14.50
2018-04-14T15:58:21.161Z,11.35
2018-04-14T16:00:49.301Z,14.27
2018-04-14T16:03:17.473Z,12.90
2018-04-14T16:05:45.653Z,14.15
2018-04-14T16:08:14.564Z,16.52
2018-04-14T16:10:42.725Z,15.27
2018-04-14T16:13:11.693Z,13.62
2018-04-14T16:15:39.841Z,13.82
2018-04-14T16:18:08.008Z,13.30
2018-04-14T16:20:36.144Z,15.30
2018-04-14T16:23:04.312Z,12.95
2018-04-14T16:25:33.226Z,12.70
2018-04-14T16:28:01.580Z,15.10
2018-04-14T16:30:29.724Z,12.40
2018-04-14T16:32:57.879Z,13.23
2018-04-14T16:35:26.016Z,14.75
2018-04-14T16:37:54.628Z,12.40
2018-04-14T16:40:22.766Z,15.35
2018-04-14T16:42:50.934Z,12.37
2018-04-14T16:45:19.064Z,11.32
2018-04-14T16:47:47.231Z,10.95
2018-04-14T16:50:15.363Z,14.65
2018-04-14T16:52:43.519Z,12.25
2018-04-14T16:55:11.660Z,12.27
2018-04-14T16:57:39.828Z,11.40
2018-04-14T17:00:07.999Z,11.60
2018-04-14T17:02:36.155Z,12.07
2018-04-14T17:05:04.302Z,13.73
2018-04-14T17:07:33.251Z,12.73
2018-04-14T17:10:01.404Z,12.37
2018-04-14T17:12:29.582Z,14.50
2018-04-14T17:14:57.725Z,12.80
2018-04-14T17:17:25.923Z,12.85
2018-04-14T17:19:54.273Z,12.80
2018-04-14T17:22:23.207Z,13.38
2018-04-14T17:24:51.360Z,11.52
2018-04-14T17:27:19.509Z,12.55
2018-04-14T17:29:47.669Z,17.20
2018-04-14T17:32:15.829Z,12.00
2018-04-14T17:34:43.960Z,14.45
2018-04-14T17:37:12.138Z,18.67
2018-04-14T17:39:40.306Z,14.30
2018-04-14T17:42:08.501Z,15.85
2018-04-14T17:44:36.725Z,16.10
2018-04-14T17:47:04.876Z,15.50
2018-04-14T17:49:33.041Z,15.18
2018-04-14T17:52:01.257Z,14.57
2018-04-14T17:54:29.434Z,17.08
2018-04-14T17:56:58.484Z,16.10
2018-04-14T17:59:26.696Z,16.05
2018-04-14T18:01:54.882Z,17.35
2018-04-14T18:04:23.057Z,17.70
2018-04-14T18:06:51.244Z,16.02
2018-04-14T18:09:20.002Z,18.37
2018-04-14T18:11:48.957Z,19.62
2018-04-14T18:14:17.125Z,20.35
2018-04-14T18:16:45.468Z,18.70
2018-04-14T18:19:13.736Z,23.10
2018-04-14T18:21:41.888Z,20.42
2018-04-14T18:24:10.892Z,19.98
2018-04-14T18:26:39.801Z,23.30
2018-04-14T18:29:08.210Z,23.48
2018-04-14T18:31:37.276Z,23.15
2018-04-14T18:34:05.428Z,22.73
2018-04-14T18:36:33.576Z,23.50
2018-04-14T18:39:01.742Z,26.73
2018-04-14T18:41:29.891Z,22.10
2018-04-14T18:43:58.047Z,19.52
2018-04-14T18:46:26.210Z,25.62
2018-04-14T18:48:54.373Z,24.70
2018-04-14T18:51:23.654Z,25.85
2018-04-14T18:53:51.808Z,25.88
2018-04-14T18:56:20.192Z,30.27
2018-04-14T18:58:48.500Z,24.42
2018-04-14T19:01:17.451Z,29.90
2018-04-14T19:03:45.617Z,23.75
2018-04-14T19:06:14.262Z,24.73
2018-04-14T19:08:43.221Z,30.08
2018-04-14T19:11:11.378Z,26.90
2018-04-14T19:13:39.642Z,27.02
2018-04-14T19:16:07.787Z,28.75
2018-04-14T19:18:35.999Z,24.95
2018-04-14T19:21:09.912Z,25.20
2018-04-14T19:23:38.564Z,27.75
2018-04-14T19:26:06.750Z,25.42
2018-04-14T19:28:34.916Z,26.48
2018-04-14T19:31:03.061Z,26.37
2018-04-14T19:33:31.236Z,24.80
2018-04-14T19:35:59.369Z,30.40
2018-04-14T19:38:27.509Z,25.08
2018-04-14T19:40:55.678Z,27.98
2018-04-14T19:43:23.889Z,30.00
2018-04-14T19:45:52.027Z,27.90
2018-04-14T19:48:20.376Z,29.55
2018-04-14T19:50:49.295Z,28.05
2018-04-14T19:53:17.712Z,26.80
2018-04-14T19:55:45.875Z,28.23
2018-04-14T19:58:14.137Z,29.95
2018-04-14T20:00:42.307Z,29.73
2018-04-14T20:03:11.004Z,30.52
2018-04-14T20:05:39.168Z,25.85
2018-04-14T20:08:07.312Z,27.85
2018-04-14T20:10:35.475Z,40.92
2018-04-14T20:13:04.384Z,30.30
2018-04-14T20:15:32.600Z,32.63
2018-04-14T20:18:00.847Z,31.98
2018-04-14T20:20:29.045Z,28.45
2018-04-14T20:22:57.182Z,30.40
2018-04-14T20:25:25.365Z,32.10
2018-04-14T20:27:53.497Z,33.00
2018-04-14T20:30:21.654Z,32.10
2018-04-14T20:32:49.789Z,29.50
2018-04-14T20:35:17.982Z,34.38
2018-04-14T20:37:46.116Z,36.63
2018-04-14T20:40:14.292Z,34.85
2018-04-14T20:42:42.461Z,41.15
2018-04-14T20:45:10.631Z,39.67
2018-04-14T20:47:39.538Z,34.78
2018-04-14T20:50:07.696Z,35.30
2018-04-14T20:52:35.852Z,31.87
2018-04-14T20:55:04.074Z,44.97
2018-04-14T20:57:32.293Z,34.30
2018-04-14T21:00:00.515Z,37.40
2018-04-14T21:02:28.706Z,47.03
2018-04-14T21:04:56.893Z,43.47
2018-04-14T21:07:25.024Z,40.35
2018-04-14T21:09:53.176Z,38.03
2018-04-14T21:12:22.103Z,37.65
2018-04-14T21:14:50.276Z,41.80
2018-04-14T21:17:18.496Z,40.92
2018-04-14T21:19:46.665Z,42.58
2018-04-14T21:22:14.817Z,46.90
2018-04-14T21:24:42.980Z,49.15
2018-04-14T21:27:11.132Z,48.72
2018-04-14T21:29:39.300Z,52.28
2018-04-14T21:32:08.208Z,42.95
2018-04-14T21:34:36.363Z,50.83
2018-04-14T21:37:05.264Z,48.63
2018-04-14T21:39:33.400Z,49.95
2018-04-14T21:42:01.564Z,47.28
2018-04-14T21:44:29.696Z,43.70
2018-04-14T21:46:57.853Z,43.33
2018-04-14T21:49:25.988Z,53.00
2018-04-14T21:51:54.148Z,50.50
2018-04-14T21:54:22.285Z,49.83
2018-04-14T21:56:50.448Z,45.50
2018-04-14T21:59:18.620Z,48.63
2018-04-14T22:01:46.775Z,49.72
2018-04-14T22:04:14.912Z,56.37
2018-04-14T22:06:43.076Z,52.08
2018-04-14T22:09:11.237Z,48.45
2018-04-14T22:11:39.373Z,52.65
2018-04-14T22:14:08.300Z,54.00
2018-04-14T22:16:36.462Z,60.75
2018-04-14T22:19:04.601Z,60.05
2018-04-14T22:21:32.770Z,60.12
2018-04-14T22:24:00.904Z,60.20
2018-04-14T22:26:29.063Z,64.75
2018-04-14T22:28:57.198Z,68.03
2018-04-14T22:31:25.355Z,62.00
2018-04-14T22:33:53.492Z,56.45
2018-04-14T22:36:21.651Z,67.25
2018-04-14T22:38:49.783Z,62.15
2018-04-14T22:41:17.946Z,70.07
2018-04-14T22:43:46.083Z,61.92
2018-04-14T22:46:14.245Z,57.85
2018-04-14T22:48:42.376Z,55.83
2018-04-14T22:51:10.536Z,66.22
2018-04-14T22:53:38.699Z,65.70
2018-04-14T22:56:06.837Z,65.00
2018-04-14T22:58:34.994Z,69.87
2018-04-14T23:01:03.124Z,66.50
2018-04-14T23:03:31.293Z,65.40
2018-04-14T23:05:59.440Z,74.37
2018-04-14T23:08:27.599Z,59.15
2018-04-14T23:10:55.737Z,64.12
2018-04-14T23:13:23.896Z,68.18
2018-04-14T23:15:52.029Z,62.38
2018-04-14T23:18:20.192Z,64.97
2018-04-14T23:20:48.325Z,67.57
2018-04-14T23:23:16.483Z,62.00
2018-04-14T23:25:44.619Z,66.22
2018-04-14T23:28:12.790Z,57.53
2018-04-14T23:30:40.925Z,69.15
2018-04-14T23:33:09.084Z,62.58
2018-04-14T23:35:37.221Z,61.92
2018-04-14T23:38:05.387Z,55.95
2018-04-14T23:40:33.521Z,51.90
2018-04-14T23:43:01.683Z,57.28
2018-04-14T23:45:29.823Z,61.50
2018-04-14T23:47:57.960Z,58.92
2018-04-14T23:50:26.121Z,65.47
2018-04-14T23:52:55.014Z,52.55
2018-04-14T23:55:23.177Z,62.72
2018-04-14T23:57:51.308Z,53.80
